Barstow, CA (92312)

7:48 PM PDT on July 02, 2015 (GMT -0700)
Barstow-Daggett | | Change Station
CLOSE
Current Station
Airport
Location: Daggett-Barstow,
Elevation: 1926 ft
Nearby Weather Stations

Elev 1926 ft 34.85 °N, 116.79 °W | Updated 58 minutes ago

Clear
Clear
100 °F
Feels Like 100 °F
N
18
Wind Variable Wind from WSW

Today
High -- | Low -- °F
--% Chance of Precip.
Yesterday
High -- | Low -- °F
Precip. -- in
5:38 AM 8:06 PM
Full, 99% visible
Pressure 29.73 in
Visibility 10.0 miles
Clouds Clear
Dew Point 48 °F
Humidity 17%
Rainfall 0.00 in
Snow Depth Not available.
UV 1 out of 12
Pollen 4.10 out of 12
Air Quality Not available.
Flu Activity Not available.
METAR KDAG 030150Z AUTO 24016KT 10SM CLR 38/09 A2982 RMK AO2 SLP066 T03780089

More Conditions Fewer Conditions

Pressure 29.73 in
Visibility 10.0 miles
Clouds Clear
Dew Point 48 °F
Humidity 17%
Rainfall 0.00 in
Snow Depth Not available.
UV 1 out of 12
Pollen 4.10 out of 12
Air Quality Not available.
Flu Activity Not available.
METAR KDAG 030150Z AUTO 24016KT 10SM CLR 38/09 A2982 RMK AO2 SLP066 T03780089

More Conditions Fewer Conditions

10-Day Weather Forecast

×

Almanac

Astronomy

Jul. 02, 2015 Rise Set
Actual Time
Civil Twilight
Nautical Twilight
Astronomical Twilight
Moon
Length of Visible Light
Length of Day
Tomorrow will be .
, % of the Moon is Illuminated

Today's Extremes

State Highs State Lows

Community

WunderPhotos

Upload Photos

1,834,594 photos uploaded!

WunderBlogs® & News

Nearby

Air Quality

  Air Quality AQ Index Pollutant
Not available.

Snow Depth

Station Depth Elevation

Earthquake Activity

City Distance Mag. Time & Date
Minimum magnitude displayed is 2.5.

Coastal Water Temperatures

Place Temperature

Stations

Nearby Weather Stations

Station Location Temp. Windchill Dew Point Humidity Wind Precip. Elev Updated Type